Time;durP1;ratioP1;P1;durP2;ratioP2;P2;SDS_P1;SDS_P2;PMS_P1;PMS_P2;Temp;Humidity;BMP_temperature;BMP_pressure;BME280_temperature;BME280_humidity;BME280_pressure;Samples;Min_cycle;Max_cycle;Signal;HPM_P1;HPM_P2
2022/01/03 00:02:24;;;;;;;15.57;6.53;;;9.40;99.90;;;;;;6211799;23;20225;-58
2022/01/03 00:04:49;;;;;;;22.80;7.00;;;9.40;99.90;;;;;;6212974;23;20362;-58
2022/01/03 00:07:15;;;;;;;14.87;6.70;;;9.50;99.90;;;;;;6186062;23;20385;-58
2022/01/03 00:09:41;;;;;;;15.07;6.73;;;9.50;99.90;;;;;;6212441;23;20197;-58
2022/01/03 00:12:07;;;;;;;26.03;6.63;;;9.40;99.90;;;;;;6212652;23;20456;-59
2022/01/03 00:14:34;;;;;;;17.67;6.73;;;9.30;99.90;;;;;;6184966;23;20197;-58
2022/01/03 00:16:59;;;;;;;15.90;6.00;;;9.40;99.90;;;;;;6212497;23;20977;-58
2022/01/03 00:19:25;;;;;;;20.93;7.30;;;9.50;99.90;;;;;;6212732;23;20366;-58
2022/01/03 00:21:56;;;;;;;20.57;6.00;;;9.50;99.90;;;;;;6212443;23;20158;-58
2022/01/03 00:24:27;;;;;;;14.47;6.33;;;9.50;99.90;;;;;;6212736;23;20150;-57
2022/01/03 00:27:02;;;;;;;11.23;5.20;;;9.50;99.90;;;;;;6212386;23;20816;-58
2022/01/03 00:29:33;;;;;;;13.33;4.70;;;9.50;99.90;;;;;;6213267;23;20738;-58
2022/01/03 00:31:59;;;;;;;11.83;5.37;;;9.50;99.90;;;;;;6212405;23;20430;-57
2022/01/03 00:34:28;;;;;;;6.30;3.63;;;9.50;99.90;;;;;;6212249;23;20488;-58
2022/01/03 00:36:56;;;;;;;8.83;3.27;;;9.50;99.90;;;;;;6212389;23;20433;-58
2022/01/03 00:39:22;;;;;;;6.17;3.00;;;9.40;99.90;;;;;;6212285;23;20374;-58
2022/01/03 00:41:49;;;;;;;4.60;2.93;;;9.40;99.90;;;;;;6212389;23;20392;-58
2022/01/03 00:44:15;;;;;;;10.73;2.60;;;9.40;99.90;;;;;;6212979;23;20142;-57
2022/01/03 00:46:43;;;;;;;11.47;2.53;;;9.40;99.90;;;;;;6212435;23;20366;-58
2022/01/03 00:49:08;;;;;;;2.70;2.00;;;9.30;99.90;;;;;;6213034;23;20492;-65
2022/01/03 00:51:35;;;;;;;5.13;2.10;;;9.30;99.90;;;;;;6212202;23;20472;-61
2022/01/03 00:54:01;;;;;;;7.47;2.07;;;9.30;99.90;;;;;;6212240;23;20173;-58
2022/01/03 00:56:35;;;;;;;2.40;1.50;;;9.20;99.90;;;;;;6210596;23;20476;-58
2022/01/03 00:59:07;;;;;;;3.40;1.70;;;9.10;99.90;;;;;;6212088;23;20362;-58
2022/01/03 01:01:37;;;;;;;4.23;1.90;;;9.10;99.90;;;;;;6212221;23;20704;-61
2022/01/03 01:04:06;;;;;;;2.60;1.57;;;9.10;99.90;;;;;;6212107;23;20393;-58
2022/01/03 01:06:34;;;;;;;5.33;1.80;;;9.10;99.90;;;;;;6212348;23;20393;-58
2022/01/03 01:09:03;;;;;;;6.37;1.60;;;9.00;99.90;;;;;;6211855;23;20661;-58
2022/01/03 01:11:30;;;;;;;2.60;1.37;;;9.00;99.90;;;;;;6212887;23;20386;-58
2022/01/03 01:13:56;;;;;;;2.10;1.40;;;9.00;99.90;;;;;;6211092;23;20374;-59
2022/01/03 01:16:23;;;;;;;4.10;1.30;;;8.90;99.90;;;;;;6212251;23;20388;-58
2022/01/03 01:18:49;;;;;;;2.77;1.30;;;8.80;99.90;;;;;;6211979;23;20370;-58
2022/01/03 01:21:15;;;;;;;2.30;1.20;;;8.80;99.90;;;;;;6211968;23;20886;-59
2022/01/03 01:23:42;;;;;;;4.23;1.40;;;8.80;99.90;;;;;;6211696;23;20370;-58
2022/01/03 01:28:52;;;;;;;4.50;1.20;;;8.70;99.90;;;;;;6211499;23;20393;-59
2022/01/03 01:31:21;;;;;;;5.30;1.40;;;8.70;99.90;;;;;;6211517;23;20409;-58
2022/01/03 01:33:55;;;;;;;4.07;1.73;;;8.70;99.90;;;;;;6211975;23;20333;-58
2022/01/03 01:36:28;;;;;;;1.83;1.30;;;8.70;99.90;;;;;;6210862;23;20847;-61
2022/01/03 01:39:02;;;;;;;2.77;1.27;;;8.70;99.90;;;;;;6211998;23;20684;-65
2022/01/03 01:41:29;;;;;;;4.63;2.00;;;8.70;99.90;;;;;;6211380;23;20380;-58
2022/01/03 01:43:59;;;;;;;2.73;1.40;;;8.60;99.90;;;;;;6212048;23;20354;-58
2022/01/03 01:46:25;;;;;;;3.50;2.07;;;8.60;99.90;;;;;;6212238;23;20358;-58
2022/01/03 01:48:51;;;;;;;2.40;1.70;;;8.50;99.90;;;;;;6212532;23;20374;-58
2022/01/03 01:51:19;;;;;;;2.07;1.27;;;8.60;99.90;;;;;;6211704;23;20491;-58
2022/01/03 01:53:48;;;;;;;4.30;1.80;;;8.50;99.90;;;;;;6211684;23;20374;-58
2022/01/03 01:56:20;;;;;;;3.10;1.50;;;8.50;99.90;;;;;;6211352;23;20436;-58
2022/01/03 01:59:01;;;;;;;3.07;1.90;;;8.50;99.90;;;;;;6211560;23;20819;-59
2022/01/03 02:01:39;;;;;;;3.80;1.60;;;8.40;99.90;;;;;;6210671;23;20449;-58
2022/01/03 02:04:31;;;;;;;4.43;1.60;;;8.40;99.90;;;;;;6211894;23;20441;-58
2022/01/03 02:06:59;;;;;;;2.13;1.97;;;8.50;99.90;;;;;;6211229;23;20448;-58
2022/01/03 02:09:52;;;;;;;2.37;2.10;;;8.40;99.90;;;;;;6211271;23;20386;-61
2022/01/03 02:12:22;;;;;;;2.07;1.87;;;8.40;99.90;;;;;;6185391;23;20378;-58
2022/01/03 02:14:51;;;;;;;5.93;2.63;;;8.40;99.90;;;;;;6211088;23;20370;-57
2022/01/03 02:17:16;;;;;;;5.33;2.03;;;8.40;99.90;;;;;;6212116;23;20429;-58
2022/01/03 02:20:01;;;;;;;1.83;1.67;;;8.40;99.90;;;;;;6211043;23;20393;-58
2022/01/03 02:22:26;;;;;;;2.00;1.50;;;8.30;99.90;;;;;;6211291;23;20143;-58
2022/01/03 02:24:52;;;;;;;3.60;1.50;;;8.30;99.90;;;;;;6211273;23;20354;-58
2022/01/03 02:27:17;;;;;;;3.67;1.73;;;8.30;99.90;;;;;;6211466;23;20147;-58
2022/01/03 02:29:43;;;;;;;2.83;1.50;;;8.30;99.90;;;;;;6211071;23;20163;-58
2022/01/03 02:32:09;;;;;;;3.40;1.90;;;8.20;99.90;;;;;;6211192;23;20209;-58
2022/01/03 02:34:35;;;;;;;5.97;2.10;;;8.20;99.90;;;;;;6211580;23;20699;-58
2022/01/03 02:37:01;;;;;;;3.60;1.70;;;8.20;99.90;;;;;;6211107;23;20174;-58
2022/01/03 02:39:26;;;;;;;4.20;2.23;;;8.20;99.90;;;;;;6184671;23;20181;-58
2022/01/03 02:41:52;;;;;;;3.80;1.80;;;8.20;99.90;;;;;;6210609;23;20374;-59
2022/01/03 02:44:18;;;;;;;4.73;1.53;;;8.20;99.90;;;;;;6211131;23;20150;-58
2022/01/03 02:46:44;;;;;;;3.10;1.80;;;8.10;99.90;;;;;;6211274;23;20158;-63
2022/01/03 02:49:10;;;;;;;4.37;1.50;;;8.10;99.90;;;;;;6211538;23;20378;-58
2022/01/03 02:51:35;;;;;;;4.60;1.43;;;8.10;99.90;;;;;;6211245;23;20277;-58
2022/01/03 02:54:01;;;;;;;4.90;1.70;;;8.10;99.90;;;;;;6211483;23;20170;-58
2022/01/03 02:56:33;;;;;;;3.63;1.50;;;8.10;99.90;;;;;;6211264;23;20158;-58
2022/01/03 02:58:59;;;;;;;2.00;1.20;;;8.10;99.90;;;;;;6211163;23;20527;-59
2022/01/03 03:01:24;;;;;;;4.33;1.20;;;8.10;99.90;;;;;;6211141;23;20366;-58
2022/01/03 03:03:50;;;;;;;7.83;1.50;;;8.00;99.90;;;;;;6211332;23;20541;-59
2022/01/03 03:06:16;;;;;;;6.13;1.50;;;8.10;99.90;;;;;;6211340;23;21162;-58
2022/01/03 03:08:42;;;;;;;6.00;1.53;;;8.10;99.90;;;;;;6211089;23;20147;-58
2022/01/03 03:11:08;;;;;;;6.33;3.20;;;8.00;99.90;;;;;;6210164;23;20524;-58
2022/01/03 03:13:33;;;;;;;2.30;1.17;;;8.10;99.90;;;;;;6209251;23;20249;-58
2022/01/03 03:16:00;;;;;;;7.63;1.77;;;8.00;99.90;;;;;;6209830;23;20158;-55
2022/01/03 03:18:25;;;;;;;8.70;1.90;;;8.10;99.90;;;;;;6210305;23;20264;-55
2022/01/03 03:20:54;;;;;;;3.10;1.50;;;8.00;99.90;;;;;;6210505;23;20853;-55
2022/01/03 03:23:20;;;;;;;8.20;1.97;;;8.00;99.90;;;;;;6210071;23;20162;-55
2022/01/03 03:25:46;;;;;;;7.63;2.23;;;8.00;99.90;;;;;;6210090;23;20394;-55
2022/01/03 03:28:13;;;;;;;12.23;3.30;;;8.00;99.90;;;;;;6210525;23;20177;-55
2022/01/03 03:30:47;;;;;;;9.10;3.47;;;8.00;99.90;;;;;;6211337;23;20620;-55
2022/01/03 03:33:16;;;;;;;15.20;3.33;;;8.00;99.90;;;;;;6211000;23;20415;-55
2022/01/03 03:35:43;;;;;;;9.50;3.47;;;8.00;99.90;;;;;;6210694;23;20373;-55
2022/01/03 03:38:09;;;;;;;12.97;3.83;;;8.00;99.90;;;;;;6211002;23;20507;-55
2022/01/03 03:40:34;;;;;;;16.50;4.03;;;8.20;99.90;;;;;;6211259;23;20818;-55
2022/01/03 03:43:00;;;;;;;8.13;3.20;;;8.10;99.90;;;;;;6210546;23;20193;-55
2022/01/03 03:45:26;;;;;;;7.53;3.50;;;8.10;99.90;;;;;;6211118;23;20185;-55
2022/01/03 03:47:52;;;;;;;9.43;3.10;;;8.10;99.90;;;;;;6211102;23;20382;-55
2022/01/03 03:50:19;;;;;;;12.83;3.73;;;8.10;99.90;;;;;;6210962;23;20276;-56
2022/01/03 03:52:45;;;;;;;10.40;3.60;;;8.20;99.90;;;;;;6210842;23;20437;-55
2022/01/03 03:55:11;;;;;;;14.00;3.97;;;8.10;99.90;;;;;;6211170;23;20373;-55
2022/01/03 03:57:37;;;;;;;9.83;3.43;;;8.10;99.90;;;;;;6212836;23;20766;-55
2022/01/03 04:00:11;;;;;;;12.43;3.20;;;8.10;99.90;;;;;;6212585;23;20160;-55
2022/01/03 04:02:37;;;;;;;8.33;2.57;;;8.20;99.90;;;;;;6212665;23;20389;-55
2022/01/03 04:05:03;;;;;;;8.10;2.90;;;8.10;99.90;;;;;;6185156;23;20963;-55
2022/01/03 04:07:29;;;;;;;15.93;3.30;;;8.20;99.90;;;;;;6212498;23;20154;-58
2022/01/03 04:09:55;;;;;;;20.03;5.87;;;8.20;99.90;;;;;;6212911;23;20696;-58
2022/01/03 04:12:20;;;;;;;10.57;3.20;;;8.20;99.90;;;;;;6212570;23;20150;-58
2022/01/03 04:14:46;;;;;;;12.50;3.20;;;8.20;99.90;;;;;;6184153;23;20178;-59
2022/01/03 04:17:12;;;;;;;11.87;3.47;;;8.20;99.90;;;;;;6211422;23;20204;-58
2022/01/03 04:19:38;;;;;;;8.80;3.37;;;8.20;99.90;;;;;;6212568;23;20147;-58
2022/01/03 04:22:03;;;;;;;12.13;3.03;;;8.30;99.90;;;;;;6186187;23;20197;-58
2022/01/03 04:24:29;;;;;;;13.77;3.30;;;8.20;99.90;;;;;;6211968;23;20370;-58
2022/01/03 04:26:55;;;;;;;14.30;3.50;;;8.30;99.90;;;;;;6212714;23;20193;-58
2022/01/03 04:29:20;;;;;;;29.47;4.73;;;8.30;99.90;;;;;;6212413;23;20182;-58
2022/01/03 04:31:46;;;;;;;11.43;3.63;;;8.30;99.90;;;;;;6212518;23;20150;-58
2022/01/03 04:34:13;;;;;;;12.40;3.77;;;8.40;99.90;;;;;;6212613;23;20224;-58
2022/01/03 04:36:39;;;;;;;15.10;3.30;;;8.40;99.90;;;;;;6212210;23;20174;-58
2022/01/03 04:39:04;;;;;;;12.00;3.17;;;8.50;99.90;;;;;;6212340;23;20679;-58
2022/01/03 04:41:30;;;;;;;11.27;2.97;;;8.50;99.90;;;;;;6212365;23;20171;-58
2022/01/03 04:43:55;;;;;;;10.73;2.93;;;8.50;99.90;;;;;;6212948;23;20539;-58
2022/01/03 04:46:21;;;;;;;10.10;2.93;;;8.50;99.90;;;;;;6212304;23;20600;-58
2022/01/03 04:48:47;;;;;;;14.03;3.30;;;8.50;99.90;;;;;;6212429;23;20213;-58
2022/01/03 04:51:12;;;;;;;12.93;3.00;;;8.50;99.90;;;;;;6212050;23;20198;-58
2022/01/03 04:53:40;;;;;;;13.93;3.47;;;8.50;99.90;;;;;;6212085;23;20483;-61
2022/01/03 04:56:10;;;;;;;14.13;3.10;;;8.50;99.90;;;;;;6212513;23;20146;-58
2022/01/03 04:58:36;;;;;;;18.37;3.57;;;8.60;99.90;;;;;;6212168;23;20785;-58
2022/01/03 05:01:02;;;;;;;18.13;3.40;;;8.50;99.90;;;;;;6211942;23;20382;-55
2022/01/03 05:03:27;;;;;;;13.23;3.27;;;8.60;99.90;;;;;;6211772;23;20146;-55
2022/01/03 05:05:53;;;;;;;11.17;3.10;;;8.60;99.90;;;;;;6212085;23;20142;-55
2022/01/03 05:08:18;;;;;;;14.20;2.90;;;8.60;99.90;;;;;;6211832;23;20159;-55
2022/01/03 05:10:44;;;;;;;20.87;4.33;;;8.50;99.90;;;;;;6211082;23;20146;-55
2022/01/03 05:13:09;;;;;;;13.33;3.33;;;8.50;99.90;;;;;;6210960;23;20163;-56
2022/01/03 05:15:35;;;;;;;18.87;3.70;;;8.50;99.90;;;;;;6210571;23;20181;-55
2022/01/03 05:18:00;;;;;;;10.07;2.87;;;8.60;99.90;;;;;;6184287;23;20727;-55
2022/01/03 05:20:26;;;;;;;12.20;3.13;;;8.60;99.90;;;;;;6211828;23;20178;-55
2022/01/03 05:22:52;;;;;;;14.53;3.20;;;8.60;99.90;;;;;;6211891;23;20154;-55
2022/01/03 05:25:17;;;;;;;13.10;3.40;;;8.60;99.90;;;;;;6212011;23;20657;-55
2022/01/03 05:27:44;;;;;;;10.17;3.10;;;8.60;99.90;;;;;;6212159;23;20269;-55
2022/01/03 05:30:10;;;;;;;11.63;2.73;;;8.50;99.90;;;;;;6212111;23;20146;-55
2022/01/03 05:32:36;;;;;;;15.97;3.43;;;8.50;99.90;;;;;;6211805;23;20696;-55
2022/01/03 05:35:02;;;;;;;18.67;3.63;;;8.60;99.90;;;;;;6212050;23;20377;-55
2022/01/03 05:37:27;;;;;;;16.23;3.37;;;8.60;99.90;;;;;;6212092;23;20205;-55
2022/01/03 05:39:53;;;;;;;25.97;3.67;;;8.60;99.90;;;;;;6211671;23;20158;-55
2022/01/03 05:42:18;;;;;;;25.60;4.03;;;8.60;99.90;;;;;;6211931;23;20142;-55
2022/01/03 05:44:44;;;;;;;19.80;4.90;;;8.60;99.90;;;;;;6211208;23;20146;-55
2022/01/03 05:47:10;;;;;;;21.00;4.20;;;8.60;99.90;;;;;;6211516;23;20158;-56
2022/01/03 05:49:35;;;;;;;22.90;3.67;;;8.60;99.90;;;;;;6211486;23;20677;-55
2022/01/03 05:52:01;;;;;;;18.50;3.70;;;8.60;99.90;;;;;;6211156;23;20217;-55
2022/01/03 05:54:27;;;;;;;25.40;3.43;;;8.60;99.90;;;;;;6211766;23;20581;-55
2022/01/03 05:56:52;;;;;;;14.00;3.50;;;8.60;99.90;;;;;;6211275;23;20182;-56
2022/01/03 05:59:18;;;;;;;21.50;3.60;;;8.60;99.90;;;;;;6211667;23;20516;-56
2022/01/03 06:01:44;;;;;;;21.40;4.10;;;8.60;99.90;;;;;;6211335;23;20450;-56
2022/01/03 06:04:20;;;;;;;26.33;4.90;;;8.60;99.90;;;;;;6211440;23;20325;-55
2022/01/03 06:07:07;;;;;;;13.60;3.43;;;8.70;99.90;;;;;;6211303;23;20406;-55
2022/01/03 06:09:33;;;;;;;17.20;3.60;;;8.70;99.90;;;;;;6211914;23;20408;-55
2022/01/03 06:11:58;;;;;;;18.43;3.13;;;8.70;99.90;;;;;;6211431;23;20382;-56
2022/01/03 06:14:25;;;;;;;24.17;3.70;;;8.70;99.90;;;;;;6210765;23;20146;-55
2022/01/03 06:16:51;;;;;;;19.13;3.57;;;8.70;99.90;;;;;;6212028;23;20183;-55
2022/01/03 06:19:17;;;;;;;17.63;3.40;;;8.70;99.90;;;;;;6211166;23;20716;-55
2022/01/03 06:21:44;;;;;;;18.33;3.50;;;8.80;99.90;;;;;;6212052;23;20362;-55
2022/01/03 06:24:15;;;;;;;25.57;3.73;;;8.70;99.90;;;;;;6211244;23;20358;-55
2022/01/03 06:26:43;;;;;;;24.10;3.80;;;8.70;99.90;;;;;;6211739;23;20381;-56
2022/01/03 06:29:10;;;;;;;20.50;3.83;;;8.70;99.90;;;;;;6211412;23;20366;-55
2022/01/03 06:31:36;;;;;;;20.27;4.07;;;8.80;99.90;;;;;;6211398;23;20436;-55
2022/01/03 06:34:02;;;;;;;21.80;3.93;;;8.80;99.90;;;;;;6211263;23;20392;-55
2022/01/03 06:36:28;;;;;;;24.17;4.50;;;8.80;99.90;;;;;;6211425;23;20373;-55
2022/01/03 06:38:54;;;;;;;25.07;4.63;;;8.80;99.90;;;;;;6211606;23;20362;-56
2022/01/03 06:41:19;;;;;;;27.10;3.23;;;8.70;99.90;;;;;;6211308;23;20158;-55
2022/01/03 06:43:45;;;;;;;34.13;4.47;;;8.80;99.90;;;;;;6211443;23;20370;-55
2022/01/03 06:46:11;;;;;;;19.50;3.80;;;8.80;99.90;;;;;;6211038;23;20153;-55
2022/01/03 06:48:37;;;;;;;18.43;3.90;;;8.70;99.90;;;;;;6211655;23;20185;-55
2022/01/03 06:51:03;;;;;;;27.97;4.73;;;8.70;99.90;;;;;;6211156;23;20491;-55
2022/01/03 06:53:28;;;;;;;20.00;4.40;;;8.80;99.90;;;;;;6211432;23;20242;-55
2022/01/03 06:55:54;;;;;;;27.50;4.47;;;8.80;99.90;;;;;;6211302;23;20393;-55
2022/01/03 06:58:20;;;;;;;24.83;3.93;;;8.70;99.90;;;;;;6211633;23;20695;-55
2022/01/03 07:00:45;;;;;;;29.20;4.70;;;8.70;99.90;;;;;;6211284;23;20225;-55
2022/01/03 07:03:11;;;;;;;22.03;3.97;;;8.80;99.90;;;;;;6211014;23;20176;-55
2022/01/03 07:05:36;;;;;;;24.63;3.70;;;8.80;99.90;;;;;;6210945;23;20158;-55
2022/01/03 07:08:02;;;;;;;18.77;3.20;;;8.80;99.90;;;;;;6210010;23;20536;-55
2022/01/03 07:10:28;;;;;;;22.63;3.70;;;8.80;99.90;;;;;;6183432;23;20151;-55
2022/01/03 07:12:54;;;;;;;18.70;4.43;;;8.80;99.90;;;;;;6211309;23;20852;-56
2022/01/03 07:20:51;;;;;;;24.27;4.30;;;8.70;99.90;;;;;;6211345;23;20361;-55
2022/01/03 07:23:18;;;;;;;26.87;4.77;;;8.80;99.90;;;;;;6210724;23;20445;-55
2022/01/03 07:25:46;;;;;;;22.27;4.00;;;8.80;99.90;;;;;;6211111;23;20742;-55
2022/01/03 07:28:13;;;;;;;21.80;3.37;;;8.80;99.90;;;;;;6211341;23;20373;-56
2022/01/03 07:30:39;;;;;;;30.27;4.23;;;8.80;99.90;;;;;;6212091;23;20395;-56
2022/01/03 07:33:04;;;;;;;19.83;4.30;;;8.80;99.90;;;;;;6213046;23;20452;-55
2022/01/03 07:35:30;;;;;;;23.67;5.90;;;8.80;99.90;;;;;;6212743;23;20154;-56
2022/01/03 07:37:55;;;;;;;25.10;4.77;;;8.80;99.90;;;;;;6212106;23;20617;-54
2022/01/03 07:40:21;;;;;;;19.53;3.77;;;8.80;99.90;;;;;;6212638;23;20147;-56
2022/01/03 07:42:47;;;;;;;28.30;5.07;;;8.80;99.90;;;;;;6213077;23;20942;-56
2022/01/03 07:45:13;;;;;;;24.97;4.27;;;8.80;99.90;;;;;;6185794;23;20488;-55
2022/01/03 07:47:39;;;;;;;30.67;3.90;;;8.70;99.90;;;;;;6212669;23;20149;-56
2022/01/03 07:50:06;;;;;;;28.77;5.33;;;8.70;99.90;;;;;;6213160;23;20517;-55
2022/01/03 07:52:32;;;;;;;25.10;3.57;;;8.70;99.90;;;;;;6212513;23;20795;-55
2022/01/03 07:54:57;;;;;;;25.97;3.30;;;8.80;99.90;;;;;;6212664;23;20636;-55
2022/01/03 07:57:23;;;;;;;31.67;5.00;;;8.80;99.90;;;;;;6212756;23;20619;-55
2022/01/03 07:59:49;;;;;;;26.70;5.00;;;8.80;99.90;;;;;;6212701;23;20482;-55
2022/01/03 08:02:14;;;;;;;32.90;3.80;;;8.80;99.90;;;;;;6212991;23;20138;-55
2022/01/03 08:04:40;;;;;;;23.87;4.20;;;8.80;99.90;;;;;;6212962;23;20457;-56
2022/01/03 08:07:05;;;;;;;31.80;4.80;;;8.70;99.90;;;;;;6213293;23;20163;-55
2022/01/03 08:09:31;;;;;;;30.30;4.90;;;8.80;99.90;;;;;;6212935;23;20149;-55
2022/01/03 08:11:57;;;;;;;27.67;4.30;;;8.70;99.90;;;;;;6213117;23;20174;-55
2022/01/03 08:14:23;;;;;;;32.47;5.10;;;8.70;99.90;;;;;;6213468;23;20147;-55
2022/01/03 08:16:48;;;;;;;22.47;3.87;;;8.70;99.90;;;;;;6213263;23;20417;-55
2022/01/03 08:19:14;;;;;;;22.53;4.33;;;8.70;99.90;;;;;;6213391;23;20139;-55
2022/01/03 08:21:40;;;;;;;19.73;3.80;;;8.70;99.90;;;;;;6212499;23;20380;-55
2022/01/03 08:24:05;;;;;;;20.83;5.07;;;8.70;99.90;;;;;;6213326;23;20224;-56
2022/01/03 08:26:33;;;;;;;33.03;4.80;;;8.70;99.90;;;;;;6212883;23;20159;-55
2022/01/03 08:29:00;;;;;;;21.73;4.27;;;8.80;99.90;;;;;;6212423;23;20146;-56
2022/01/03 08:31:25;;;;;;;17.60;3.80;;;8.80;99.90;;;;;;6213246;23;20358;-55
2022/01/03 08:33:53;;;;;;;22.00;3.80;;;8.80;99.90;;;;;;6213179;23;20380;-55
2022/01/03 08:36:19;;;;;;;26.27;4.47;;;8.80;99.90;;;;;;6212968;23;20146;-55
2022/01/03 08:38:45;;;;;;;32.27;4.83;;;8.80;99.90;;;;;;6185360;23;20437;-55
2022/01/03 08:41:11;;;;;;;27.37;5.43;;;8.80;99.90;;;;;;6212428;23;20432;-55
2022/01/03 08:43:36;;;;;;;27.93;4.73;;;8.80;99.90;;;;;;6211910;23;20161;-55
2022/01/03 08:46:02;;;;;;;26.10;3.93;;;8.70;99.90;;;;;;6210989;23;20178;-55
2022/01/03 08:48:28;;;;;;;23.43;3.50;;;8.70;99.90;;;;;;6211265;23;20593;-55
2022/01/03 08:50:54;;;;;;;25.67;4.10;;;8.70;99.90;;;;;;6184065;23;20193;-55
2022/01/03 08:53:25;;;;;;;24.90;4.67;;;8.80;99.90;;;;;;6211041;23;20821;-56
2022/01/03 08:55:51;;;;;;;27.20;4.20;;;8.80;99.90;;;;;;6212002;23;20147;-55
2022/01/03 08:58:18;;;;;;;24.30;4.40;;;8.80;99.90;;;;;;6211417;23;20509;-55
2022/01/03 09:00:44;;;;;;;24.77;4.27;;;8.90;99.90;;;;;;6211777;23;20358;-55
2022/01/03 09:03:10;;;;;;;23.23;4.37;;;8.90;99.90;;;;;;6212037;23;20832;-55
2022/01/03 09:05:35;;;;;;;30.67;4.67;;;9.00;99.90;;;;;;6185797;23;20146;-55
2022/01/03 09:08:02;;;;;;;22.53;3.97;;;9.00;99.90;;;;;;6211902;23;20197;-55
2022/01/03 09:10:27;;;;;;;30.60;4.53;;;9.00;99.90;;;;;;6211369;23;20229;-56
2022/01/03 09:12:53;;;;;;;29.60;4.20;;;9.10;99.90;;;;;;6211895;23;20408;-55
2022/01/03 09:15:18;;;;;;;24.17;4.07;;;9.20;99.90;;;;;;6212399;23;20189;-55
2022/01/03 09:17:44;;;;;;;35.87;4.50;;;9.20;99.90;;;;;;6211748;23;20253;-55
2022/01/03 09:20:10;;;;;;;31.57;4.43;;;9.20;99.90;;;;;;6212162;23;20495;-55
2022/01/03 09:22:41;;;;;;;23.43;4.60;;;9.10;99.90;;;;;;6211650;23;20143;-55
2022/01/03 09:30:31;;;;;;;22.40;3.40;;;9.10;99.90;;;;;;6211613;23;20357;-54
2022/01/03 09:32:56;;;;;;;18.10;3.80;;;9.10;99.90;;;;;;6212631;23;20577;-55
2022/01/03 09:35:22;;;;;;;26.10;4.23;;;9.20;99.90;;;;;;6212699;23;20432;-54
2022/01/03 09:37:48;;;;;;;24.33;4.57;;;9.10;99.90;;;;;;6210696;23;20178;-54
2022/01/03 09:40:14;;;;;;;26.70;5.77;;;9.00;99.90;;;;;;6211981;23;20229;-54
2022/01/03 09:42:42;;;;;;;21.10;3.97;;;9.00;99.90;;;;;;6211615;23;20406;-54
2022/01/03 09:45:11;;;;;;;23.97;3.97;;;9.00;99.90;;;;;;6211799;23;20373;-55
2022/01/03 09:47:43;;;;;;;32.23;4.77;;;9.00;99.90;;;;;;6211455;23;20366;-55
2022/01/03 09:50:11;;;;;;;28.70;5.50;;;9.00;99.90;;;;;;6212026;23;20390;-54
2022/01/03 09:52:36;;;;;;;33.60;4.37;;;8.90;99.90;;;;;;6211002;23;20441;-54
2022/01/03 09:55:03;;;;;;;23.47;4.13;;;9.00;99.90;;;;;;6184980;23;20408;-54
2022/01/03 09:57:30;;;;;;;20.13;5.00;;;9.00;99.90;;;;;;6183477;23;20190;-54
2022/01/03 09:59:58;;;;;;;34.50;4.10;;;9.10;99.90;;;;;;6211889;23;20365;-54
2022/01/03 10:02:24;;;;;;;26.03;4.30;;;9.10;99.90;;;;;;6184839;23;20393;-54
2022/01/03 10:04:49;;;;;;;26.17;5.00;;;9.20;99.90;;;;;;6211805;23;20455;-54
2022/01/03 10:07:17;;;;;;;21.90;4.00;;;9.10;99.90;;;;;;6211069;23;20484;-54
2022/01/03 10:09:43;;;;;;;21.43;4.23;;;9.10;99.90;;;;;;6211533;23;20222;-54
2022/01/03 10:12:11;;;;;;;30.03;4.70;;;9.10;99.90;;;;;;6210972;23;20392;-54
2022/01/03 10:14:37;;;;;;;26.27;4.97;;;9.10;99.90;;;;;;6210308;23;20380;-54
2022/01/03 10:17:03;;;;;;;34.30;4.67;;;9.20;99.90;;;;;;6211150;23;20437;-54
2022/01/03 10:19:28;;;;;;;24.00;4.60;;;9.20;99.90;;;;;;6209810;23;20495;-54
2022/01/03 10:21:54;;;;;;;31.40;5.10;;;9.20;99.90;;;;;;6211669;23;20181;-55
2022/01/03 10:24:32;;;;;;;31.33;4.40;;;9.20;99.90;;;;;;6211918;23;20139;-54
2022/01/03 10:26:58;;;;;;;25.53;4.27;;;9.20;99.90;;;;;;6211866;23;20221;-54
2022/01/03 10:29:26;;;;;;;22.60;5.50;;;9.20;99.90;;;;;;6212135;23;20424;-54
2022/01/03 10:31:54;;;;;;;28.23;4.77;;;9.20;99.90;;;;;;6212175;23;20222;-55
2022/01/03 10:34:23;;;;;;;26.63;4.90;;;9.20;99.90;;;;;;6212632;23;20373;-54
2022/01/03 10:36:49;;;;;;;24.07;4.70;;;9.20;99.90;;;;;;6211987;23;20393;-54
2022/01/03 10:39:16;;;;;;;21.43;5.03;;;9.30;99.90;;;;;;6212029;23;20378;-54
2022/01/03 10:41:44;;;;;;;20.63;4.57;;;9.30;99.90;;;;;;6212090;23;20374;-54
2022/01/03 10:44:09;;;;;;;18.20;3.77;;;9.30;99.90;;;;;;6212097;23;20453;-55
2022/01/03 10:46:37;;;;;;;23.57;4.57;;;9.30;99.90;;;;;;6212065;23;20432;-54
2022/01/03 10:49:13;;;;;;;28.17;3.57;;;9.30;99.90;;;;;;6211929;23;20159;-54
2022/01/03 10:51:39;;;;;;;27.50;4.47;;;9.60;99.90;;;;;;6212047;23;20512;-54
2022/01/03 10:54:09;;;;;;;14.33;4.07;;;9.70;90.00;;;;;;6211804;23;20362;-55
2022/01/03 10:56:39;;;;;;;30.57;4.43;;;9.70;78.70;;;;;;6211720;23;20845;-54
2022/01/03 10:59:25;;;;;;;16.80;3.30;;;9.80;89.00;;;;;;6211969;23;20358;-54
2022/01/03 11:02:12;;;;;;;25.93;4.10;;;9.70;35.80;;;;;;6211906;23;20360;-54
2022/01/03 11:04:53;;;;;;;34.77;4.70;;;9.70;44.80;;;;;;6212202;23;20440;-54
2022/01/03 11:13:20;;;;;;;21.30;4.70;;;9.60;60.20;;;;;;6214004;23;20416;-55
2022/01/03 11:15:55;;;;;;;19.00;4.20;;;10.00;52.70;;;;;;6213825;23;20381;-54
2022/01/03 11:18:28;;;;;;;25.00;4.33;;;10.30;4.00;;;;;;6214037;23;20417;-54
2022/01/03 11:21:23;;;;;;;23.53;4.20;;;10.40;1.00;;;;;;6213628;23;20476;-54
2022/01/03 11:24:08;;;;;;;23.37;3.97;;;10.30;1.00;;;;;;6213954;23;20365;-54
2022/01/03 11:26:38;;;;;;;23.50;4.20;;;10.20;1.00;;;;;;6213851;23;20354;-55
2022/01/03 11:29:04;;;;;;;26.43;3.90;;;10.50;1.00;;;;;;6213783;23;20358;-54
2022/01/03 11:31:33;;;;;;;18.33;4.13;;;10.80;1.00;;;;;;6213691;23;20946;-55
2022/01/03 11:33:59;;;;;;;39.57;5.97;;;11.00;1.00;;;;;;6213703;23;20354;-54
2022/01/03 11:36:26;;;;;;;24.83;4.33;;;11.00;1.00;;;;;;6213796;23;20354;-54
2022/01/03 11:38:54;;;;;;;21.67;4.20;;;11.00;1.00;;;;;;6213455;23;20429;-55
2022/01/03 11:41:20;;;;;;;17.67;3.73;;;10.90;1.00;;;;;;6213933;23;20449;-54
2022/01/03 11:43:46;;;;;;;29.07;4.53;;;10.90;1.00;;;;;;6213927;23;20740;-54
2022/01/03 11:46:12;;;;;;;27.13;3.47;;;10.90;1.00;;;;;;6213480;23;20671;-54
2022/01/03 11:48:38;;;;;;;26.90;3.67;;;11.00;1.00;;;;;;6213582;23;20245;-55
2022/01/03 11:51:09;;;;;;;23.97;4.27;;;11.10;1.00;;;;;;6213699;23;20446;-55
2022/01/03 11:53:37;;;;;;;21.23;4.70;;;11.00;1.00;;;;;;6213346;23;20155;-54
2022/01/03 11:56:08;;;;;;;16.43;3.87;;;10.90;1.00;;;;;;6213578;23;20511;-56
2022/01/03 11:58:50;;;;;;;21.17;3.73;;;10.90;1.00;;;;;;6213574;23;20425;-55
2022/01/03 12:04:08;;;;;;;25.53;4.43;;;11.20;99.90;;;;;;6213519;23;20363;-55
2022/01/03 12:06:35;;;;;;;18.70;3.47;;;11.30;99.90;;;;;;6213201;23;20366;-54
2022/01/03 12:09:08;;;;;;;26.03;3.83;;;11.30;99.90;;;;;;6213472;23;20473;-56
2022/01/03 12:11:40;;;;;;;24.87;3.90;;;11.20;1.00;;;;;;6213432;23;20448;-54
2022/01/03 12:14:11;;;;;;;18.03;4.47;;;11.20;1.00;;;;;;6213472;23;20369;-55
2022/01/03 12:16:42;;;;;;;19.23;3.90;;;11.20;99.90;;;;;;6213060;23;20428;-54
2022/01/03 12:19:12;;;;;;;24.10;3.37;;;11.10;99.90;;;;;;6213406;23;20370;-55
2022/01/03 12:21:50;;;;;;;20.67;3.63;;;11.00;99.90;;;;;;6213131;23;20702;-55
2022/01/03 12:24:27;;;;;;;22.50;5.10;;;11.50;99.90;;;;;;6213293;23;20353;-55
2022/01/03 12:27:14;;;;;;;19.23;2.97;;;12.00;99.90;;;;;;6213344;23;20388;-55
2022/01/03 12:29:55;;;;;;;15.70;2.83;;;13.00;1.00;;;;;;6213099;23;20378;-55
2022/01/03 12:32:27;;;;;;;18.00;3.60;;;14.00;1.00;;;;;;6213142;23;20354;-54
2022/01/03 12:35:12;;;;;;;22.30;3.70;;;14.50;1.00;;;;;;6213053;23;20441;-55
2022/01/03 12:37:43;;;;;;;24.03;3.60;;;14.10;1.00;;;;;;6213065;23;20438;-55
2022/01/03 12:40:13;;;;;;;14.70;3.03;;;13.90;1.00;;;;;;6213000;23;20847;-55
2022/01/03 12:42:45;;;;;;;16.33;3.40;;;13.80;1.00;;;;;;6213760;23;20421;-54
2022/01/03 12:45:12;;;;;;;25.10;3.20;;;13.40;1.00;;;;;;6213348;23;20366;-55
2022/01/03 12:47:39;;;;;;;18.20;2.80;;;13.10;1.00;;;;;;6213625;23;20378;-55
2022/01/03 12:50:21;;;;;;;20.90;3.50;;;12.90;1.00;;;;;;6213552;23;20870;-55
2022/01/03 12:52:48;;;;;;;17.90;3.40;;;12.70;1.00;;;;;;6212866;23;20440;-55
2022/01/03 12:55:38;;;;;;;30.37;4.30;;;12.10;1.00;;;;;;6213069;23;20373;-55
2022/01/03 12:58:16;;;;;;;11.27;2.73;;;11.50;1.00;;;;;;6213096;23;20429;-55
2022/01/03 13:00:49;;;;;;;19.80;3.57;;;11.20;2.00;;;;;;6212945;23;20419;-54
2022/01/03 13:03:38;;;;;;;15.93;3.47;;;11.20;62.10;;;;;;6212934;23;20370;-55
2022/01/03 13:06:28;;;;;;;16.03;3.70;;;11.60;28.90;;;;;;6212870;23;20374;-54
2022/01/03 13:08:56;;;;;;;22.93;4.10;;;11.70;2.30;;;;;;6213571;23;20808;-55
2022/01/03 13:11:24;;;;;;;22.20;2.80;;;11.50;1.00;;;;;;6212909;23;20378;-55
2022/01/03 13:13:51;;;;;;;23.97;3.57;;;11.10;17.00;;;;;;6212837;23;20697;-55
2022/01/03 13:16:21;;;;;;;13.60;3.17;;;10.90;94.50;;;;;;6186186;23;20389;-54